createdAt,value
2018-05-10T00:02:22.235Z,13.31
2018-05-10T00:05:25.592Z,13.32
2018-05-10T00:08:28.924Z,13.28
2018-05-10T00:11:33.003Z,13.24
2018-05-10T00:14:36.426Z,13.21
2018-05-10T00:17:39.801Z,13.19
2018-05-10T00:20:43.150Z,13.20
2018-05-10T00:23:47.329Z,13.16
2018-05-10T00:26:50.672Z,13.19
2018-05-10T00:29:53.995Z,13.19
2018-05-10T00:32:57.344Z,13.19
2018-05-10T00:36:01.415Z,13.18
2018-05-10T00:39:04.843Z,13.16
2018-05-10T00:42:08.218Z,13.14
2018-05-10T00:45:11.629Z,13.17
2018-05-10T00:48:15.018Z,13.16
2018-05-10T00:51:18.414Z,13.24
2018-05-10T00:54:39.513Z,13.27
2018-05-10T00:57:42.909Z,13.26
2018-05-10T01:00:46.223Z,13.32
2018-05-10T01:03:49.570Z,13.30
2018-05-10T01:06:52.890Z,13.26
2018-05-10T01:09:56.235Z,13.29
2018-05-10T01:13:00.332Z,13.28
2018-05-10T01:16:03.721Z,13.31
2018-05-10T01:19:07.118Z,13.38
2018-05-10T01:22:10.516Z,13.45
2018-05-10T01:25:13.837Z,13.53
2018-05-10T01:28:17.186Z,13.61
2018-05-10T01:31:20.502Z,13.62
2018-05-10T01:34:23.899Z,13.64
2018-05-10T01:37:27.225Z,13.65
2018-05-10T01:40:31.353Z,13.67
2018-05-10T01:43:35.426Z,13.74
2018-05-10T01:46:38.830Z,13.72
2018-05-10T01:49:42.212Z,13.74
2018-05-10T01:52:45.609Z,13.76
2018-05-10T01:55:48.913Z,13.76
2018-05-10T01:58:52.306Z,13.73
2018-05-10T02:01:55.621Z,13.65
2018-05-10T02:04:59.000Z,13.61
2018-05-10T02:08:02.395Z,13.53
2018-05-10T02:11:05.742Z,13.49
2018-05-10T02:14:09.069Z,13.52
2018-05-10T02:17:12.407Z,13.57
2018-05-10T02:20:15.744Z,13.68
2018-05-10T02:23:19.089Z,13.67
2018-05-10T02:26:22.461Z,13.74
2018-05-10T02:29:25.797Z,13.78
2018-05-10T02:32:29.913Z,13.76
2018-05-10T02:35:34.040Z,13.79
2018-05-10T02:38:38.215Z,13.80
2018-05-10T02:41:41.568Z,13.78
2018-05-10T02:44:44.886Z,13.77
2018-05-10T02:47:48.310Z,13.73
2018-05-10T02:50:51.701Z,13.71
2018-05-10T02:53:55.114Z,13.71
2018-05-10T02:56:58.424Z,13.68
2018-05-10T03:00:01.793Z,13.68
2018-05-10T03:03:05.191Z,13.69
2018-05-10T03:06:08.597Z,13.70
2018-05-10T03:09:11.976Z,13.66
2018-05-10T03:12:15.326Z,13.57
2018-05-10T03:15:19.410Z,13.57
2018-05-10T03:18:22.767Z,13.44
2018-05-10T03:21:26.191Z,13.39
2018-05-10T03:24:29.529Z,13.33
2018-05-10T03:27:33.663Z,13.26
2018-05-10T03:30:37.002Z,13.19
2018-05-10T03:33:40.313Z,13.05
2018-05-10T03:36:43.706Z,12.99
2018-05-10T03:39:47.008Z,12.94
2018-05-10T03:42:50.386Z,12.87
2018-05-10T03:45:53.778Z,12.86
2018-05-10T03:48:57.139Z,12.85
2018-05-10T03:52:00.470Z,12.82
2018-05-10T03:55:03.864Z,12.86
2018-05-10T03:58:07.265Z,12.85
2018-05-10T04:01:10.597Z,12.81
2018-05-10T04:04:33.424Z,12.82
2018-05-10T04:07:54.596Z,12.81
2018-05-10T04:11:21.344Z,12.86
2018-05-10T04:14:24.767Z,12.92
2018-05-10T04:17:28.186Z,12.93
2018-05-10T04:20:31.572Z,12.98
2018-05-10T04:23:34.884Z,12.94
2018-05-10T04:26:38.237Z,12.95
2018-05-10T04:29:41.560Z,13.01
2018-05-10T04:32:44.957Z,13.04
2018-05-10T04:35:48.296Z,13.04
2018-05-10T04:38:52.412Z,13.11
2018-05-10T04:41:56.584Z,13.15
2018-05-10T04:44:59.986Z,13.15
2018-05-10T04:48:03.315Z,13.17
2018-05-10T04:51:07.493Z,13.15
2018-05-10T04:54:10.817Z,13.14
2018-05-10T04:57:14.934Z,13.21
2018-05-10T05:00:19.124Z,13.26
2018-05-10T05:03:22.567Z,13.25
2018-05-10T05:06:25.904Z,13.28
2018-05-10T05:09:29.260Z,13.30
2018-05-10T05:12:32.597Z,13.32
2018-05-10T05:15:36.001Z,13.39
2018-05-10T05:18:39.325Z,13.46
2018-05-10T05:21:42.702Z,13.52
2018-05-10T05:24:46.098Z,13.55
2018-05-10T05:27:49.495Z,13.61
2018-05-10T05:30:52.894Z,13.66
2018-05-10T05:33:56.254Z,13.72
2018-05-10T05:36:59.561Z,13.62
2018-05-10T05:40:02.910Z,13.63
2018-05-10T05:43:07.203Z,13.57
2018-05-10T05:46:11.252Z,13.58
2018-05-10T05:49:14.610Z,13.63
2018-05-10T05:52:17.963Z,13.56
2018-05-10T05:55:21.273Z,13.58
2018-05-10T05:58:24.704Z,13.48
2018-05-10T06:01:28.020Z,13.60
2018-05-10T06:04:31.367Z,13.71
2018-05-10T06:07:34.680Z,13.81
2018-05-10T06:10:38.141Z,13.97
2018-05-10T06:13:41.492Z,14.23
2018-05-10T06:16:44.878Z,14.50
2018-05-10T06:19:48.265Z,14.78
2018-05-10T06:22:51.621Z,14.85
2018-05-10T06:25:55.707Z,14.87
2018-05-10T06:28:59.057Z,14.75
2018-05-10T06:32:02.378Z,14.72
2018-05-10T06:35:05.723Z,14.72
2018-05-10T06:38:09.905Z,14.69
2018-05-10T06:41:13.242Z,14.64
2018-05-10T06:44:16.642Z,14.86
2018-05-10T06:47:20.090Z,15.19
2018-05-10T06:50:23.588Z,15.23
2018-05-10T06:53:26.933Z,15.20
2018-05-10T06:56:30.237Z,15.29
2018-05-10T06:59:33.586Z,15.28
2018-05-10T07:02:36.974Z,15.32
2018-05-10T07:05:40.377Z,15.35
2018-05-10T07:08:43.770Z,15.33
2018-05-10T07:11:47.131Z,15.29
2018-05-10T07:14:50.454Z,15.31
2018-05-10T07:17:53.793Z,15.48
2018-05-10T07:20:57.987Z,15.72
2018-05-10T07:24:01.329Z,15.70
2018-05-10T07:27:04.645Z,15.64
2018-05-10T07:30:08.054Z,15.78
2018-05-10T07:33:11.466Z,15.81
2018-05-10T07:36:14.852Z,15.60
2018-05-10T07:39:18.167Z,15.48
2018-05-10T07:42:21.502Z,15.35
2018-05-10T07:45:24.872Z,15.20
2018-05-10T07:48:28.983Z,15.14
2018-05-10T07:51:32.314Z,15.09
2018-05-10T07:54:35.657Z,15.16
2018-05-10T07:57:39.004Z,15.10
2018-05-10T08:00:42.341Z,15.05
2018-05-10T08:03:45.648Z,15.09
2018-05-10T08:06:49.047Z,15.06
2018-05-10T08:09:52.374Z,15.01
2018-05-10T08:12:56.472Z,15.04
2018-05-10T08:16:00.601Z,15.16
2018-05-10T08:19:04.013Z,15.12
2018-05-10T08:22:07.364Z,15.16
2018-05-10T08:25:10.706Z,15.25
2018-05-10T08:28:14.043Z,15.37
2018-05-10T08:31:17.448Z,15.46
2018-05-10T08:34:20.759Z,15.61
2018-05-10T08:37:24.137Z,15.64
2018-05-10T08:40:27.538Z,15.69
2018-05-10T08:43:30.945Z,15.77
2018-05-10T08:46:34.331Z,15.88
2018-05-10T08:49:37.681Z,16.02
2018-05-10T08:52:41.017Z,16.19
2018-05-10T08:55:45.398Z,16.33
2018-05-10T08:58:48.745Z,16.50
2018-05-10T09:01:52.093Z,16.78
2018-05-10T09:04:55.443Z,17.07
2018-05-10T09:07:58.809Z,17.35
2018-05-10T09:11:02.180Z,17.49
2018-05-10T09:14:05.522Z,17.63
2018-05-10T09:17:08.837Z,17.69
2018-05-10T09:20:12.272Z,17.86
2018-05-10T09:23:15.625Z,18.05
2018-05-10T09:26:18.997Z,18.19
2018-05-10T09:29:22.336Z,18.15
2018-05-10T09:32:26.526Z,18.13
2018-05-10T09:35:29.914Z,18.16
2018-05-10T09:38:33.277Z,18.32
2018-05-10T09:41:36.604Z,18.65
2018-05-10T09:44:40.064Z,18.91
2018-05-10T09:47:43.382Z,18.97
2018-05-10T09:50:46.818Z,19.08
2018-05-10T09:53:50.125Z,19.32
2018-05-10T09:56:54.320Z,19.48
2018-05-10T09:59:57.737Z,19.37
2018-05-10T10:03:01.120Z,19.07
2018-05-10T10:06:04.523Z,19.06
2018-05-10T10:09:07.921Z,19.05
2018-05-10T10:12:11.300Z,18.90
2018-05-10T10:15:14.648Z,18.77
2018-05-10T10:18:18.030Z,18.68
2018-05-10T10:21:23.505Z,18.44
2018-05-10T10:24:26.838Z,18.31
2018-05-10T10:27:30.301Z,18.24
2018-05-10T10:30:33.571Z,17.95
2018-05-10T10:33:37.767Z,17.81
2018-05-10T10:36:41.266Z,17.92
2018-05-10T10:39:44.655Z,17.93
2018-05-10T10:42:48.041Z,18.13
2018-05-10T10:45:51.383Z,18.11
2018-05-10T10:48:55.460Z,18.16
2018-05-10T10:51:58.848Z,18.08
2018-05-10T10:55:02.264Z,18.13
2018-05-10T10:58:05.705Z,18.09
2018-05-10T11:01:09.052Z,17.98
2018-05-10T11:04:13.175Z,17.98
2018-05-10T11:07:16.548Z,18.05
2018-05-10T11:10:19.888Z,18.02
2018-05-10T11:13:23.973Z,18.10
2018-05-10T11:16:27.334Z,18.37
2018-05-10T11:19:30.654Z,18.43
2018-05-10T11:22:34.100Z,18.50
2018-05-10T11:25:37.365Z,18.76
2018-05-10T11:28:40.717Z,18.81
2018-05-10T11:31:44.017Z,18.84
2018-05-10T11:34:47.367Z,18.90
2018-05-10T11:37:50.761Z,19.15
2018-05-10T11:40:54.110Z,19.16
2018-05-10T11:43:57.462Z,19.41
2018-05-10T11:47:01.567Z,19.65
2018-05-10T11:50:04.958Z,19.65
2018-05-10T11:53:08.355Z,19.34
2018-05-10T11:56:11.708Z,18.78
2018-05-10T11:59:15.142Z,18.25
2018-05-10T12:02:18.547Z,17.92
2018-05-10T12:05:21.905Z,17.68
2018-05-10T12:08:25.346Z,17.49
2018-05-10T12:11:30.198Z,17.32
2018-05-10T12:14:34.397Z,17.27
2018-05-10T12:17:37.766Z,17.21
2018-05-10T12:20:41.085Z,17.15
2018-05-10T12:23:44.465Z,17.12
2018-05-10T12:26:47.774Z,17.16
2018-05-10T12:29:51.170Z,17.25
2018-05-10T12:32:55.415Z,17.29
2018-05-10T12:35:59.662Z,17.32
2018-05-10T12:39:02.978Z,17.13
2018-05-10T12:42:06.344Z,16.89
2018-05-10T12:45:09.700Z,16.73
2018-05-10T12:48:13.106Z,16.59
2018-05-10T12:51:16.485Z,16.47
2018-05-10T12:54:19.880Z,16.35
2018-05-10T12:57:23.205Z,16.25
2018-05-10T13:00:27.320Z,16.18
2018-05-10T13:03:30.711Z,16.15
2018-05-10T13:06:34.073Z,16.17
2018-05-10T13:09:37.393Z,16.15
2018-05-10T13:12:40.736Z,16.11
2018-05-10T13:15:44.086Z,16.07
2018-05-10T13:18:47.439Z,16.07
2018-05-10T13:21:50.817Z,16.02
2018-05-10T13:24:54.922Z,16.00
2018-05-10T13:27:59.114Z,15.99
2018-05-10T13:31:02.462Z,16.00
2018-05-10T13:34:05.781Z,16.07
2018-05-10T13:37:09.146Z,16.14
2018-05-10T13:40:12.503Z,16.18
2018-05-10T13:43:15.849Z,16.22
2018-05-10T13:46:19.169Z,16.28
2018-05-10T13:49:22.527Z,16.29
2018-05-10T13:52:25.853Z,16.28
2018-05-10T13:55:29.206Z,16.28
2018-05-10T13:58:33.320Z,16.33
2018-05-10T14:01:37.565Z,16.35
2018-05-10T14:04:40.894Z,16.39
2018-05-10T14:07:44.323Z,16.41
2018-05-10T14:10:47.713Z,16.47
2018-05-10T14:13:51.175Z,16.47
2018-05-10T14:16:54.506Z,16.44
2018-05-10T14:19:57.866Z,16.34
2018-05-10T14:23:01.187Z,16.25
2018-05-10T14:26:04.583Z,16.25
2018-05-10T14:29:07.999Z,16.26
2018-05-10T14:32:11.346Z,16.27
2018-05-10T14:35:14.661Z,16.27
2018-05-10T14:38:18.034Z,16.28
2018-05-10T14:41:21.353Z,16.24
2018-05-10T14:44:24.713Z,16.22
2018-05-10T14:47:28.047Z,16.18
2018-05-10T14:50:31.476Z,16.16
2018-05-10T14:53:34.811Z,16.14
2018-05-10T14:56:38.165Z,16.16
2018-05-10T14:59:41.527Z,16.11
2018-05-10T15:02:44.860Z,16.04
2018-05-10T15:05:48.244Z,15.87
2018-05-10T15:08:51.591Z,15.70
2018-05-10T15:11:54.943Z,15.68
2018-05-10T15:14:58.361Z,15.62
2018-05-10T15:18:01.748Z,15.58
2018-05-10T15:21:05.094Z,15.57
2018-05-10T15:24:08.421Z,15.58
2018-05-10T15:27:11.783Z,15.57
2018-05-10T15:30:15.143Z,15.57
2018-05-10T15:33:18.519Z,15.63
2018-05-10T15:36:21.921Z,15.71
2018-05-10T15:39:26.522Z,15.70
2018-05-10T15:42:29.868Z,15.80
2018-05-10T15:45:33.987Z,15.75
2018-05-10T15:48:38.074Z,15.83
2018-05-10T15:51:41.551Z,15.96
2018-05-10T15:54:45.591Z,15.83
2018-05-10T15:57:48.943Z,15.74
2018-05-10T16:00:52.378Z,15.72
2018-05-10T16:03:55.728Z,15.62
2018-05-10T16:06:59.045Z,15.59
2018-05-10T16:10:02.407Z,15.55
2018-05-10T16:13:05.765Z,15.55
2018-05-10T16:16:09.148Z,15.57
2018-05-10T16:19:12.498Z,15.62
2018-05-10T16:22:16.613Z,15.69
2018-05-10T16:25:20.705Z,15.74
2018-05-10T16:28:24.057Z,15.68
2018-05-10T16:31:27.480Z,15.60
2018-05-10T16:34:30.830Z,15.64
2018-05-10T16:37:34.202Z,15.65
2018-05-10T16:40:38.918Z,15.70
2018-05-10T16:43:42.278Z,15.75
2018-05-10T16:46:45.634Z,15.79
2018-05-10T16:49:49.738Z,15.84
2018-05-10T16:52:53.867Z,15.85
2018-05-10T16:55:57.956Z,15.80
2018-05-10T16:59:01.289Z,15.81
2018-05-10T17:02:04.637Z,15.71
2018-05-10T17:05:08.031Z,15.61
2018-05-10T17:08:11.447Z,15.50
2018-05-10T17:11:14.810Z,15.47
2018-05-10T17:14:18.240Z,15.35
2018-05-10T17:17:21.582Z,15.22
2018-05-10T17:20:24.905Z,15.13
2018-05-10T17:23:28.334Z,15.09
2018-05-10T17:26:31.706Z,15.05
2018-05-10T17:29:35.063Z,14.94
2018-05-10T17:32:38.465Z,14.94
2018-05-10T17:35:41.837Z,14.94
2018-05-10T17:38:46.016Z,14.90
2018-05-10T17:41:49.478Z,14.86
2018-05-10T17:44:52.723Z,14.84
2018-05-10T17:47:56.117Z,14.70
2018-05-10T17:50:59.425Z,14.62
2018-05-10T17:54:03.570Z,14.60
2018-05-10T17:57:07.748Z,14.56
2018-05-10T18:00:11.138Z,14.63
2018-05-10T18:03:14.471Z,14.70
2018-05-10T18:06:18.612Z,14.68
2018-05-10T18:09:21.933Z,14.66
2018-05-10T18:12:25.277Z,14.64
2018-05-10T18:15:29.370Z,14.62
2018-05-10T18:18:32.827Z,14.56
2018-05-10T18:21:36.177Z,14.54
2018-05-10T18:24:39.562Z,14.53
2018-05-10T18:27:42.887Z,14.37
2018-05-10T18:30:46.269Z,14.27
2018-05-10T18:33:49.630Z,14.22
2018-05-10T18:36:53.045Z,14.09
2018-05-10T18:39:56.459Z,13.98
2018-05-10T18:42:59.811Z,13.84
2018-05-10T18:46:03.128Z,13.71
2018-05-10T18:49:06.488Z,13.69
2018-05-10T18:52:10.625Z,13.64
2018-05-10T18:55:13.985Z,13.55
2018-05-10T18:58:17.358Z,13.48
2018-05-10T19:01:20.709Z,13.42
2018-05-10T19:04:24.041Z,13.38
2018-05-10T19:07:27.477Z,13.25
2018-05-10T19:10:30.811Z,13.12
2018-05-10T19:13:34.266Z,13.11
2018-05-10T19:16:37.656Z,13.07
2018-05-10T19:19:41.055Z,13.01
2018-05-10T19:22:44.439Z,13.00
2018-05-10T19:25:47.793Z,12.97
2018-05-10T19:28:51.141Z,12.97
2018-05-10T19:31:55.337Z,12.82
2018-05-10T19:34:58.612Z,12.71
2018-05-10T19:38:02.062Z,12.66
2018-05-10T19:41:05.391Z,12.61
2018-05-10T19:44:09.573Z,12.52
2018-05-10T19:47:12.908Z,12.50
2018-05-10T19:50:17.093Z,12.47
2018-05-10T19:53:20.518Z,12.40
2018-05-10T19:56:24.651Z,12.38
2018-05-10T19:59:27.976Z,12.33
2018-05-10T20:02:31.326Z,12.30
2018-05-10T20:05:35.413Z,12.24
2018-05-10T20:08:38.824Z,12.21
2018-05-10T20:11:42.113Z,12.18
2018-05-10T20:14:45.480Z,12.12
2018-05-10T20:17:48.805Z,12.08
2018-05-10T20:20:52.194Z,12.04
2018-05-10T20:23:55.625Z,12.02
2018-05-10T20:26:58.936Z,11.99
2018-05-10T20:30:03.019Z,12.01
2018-05-10T20:33:06.371Z,11.99
2018-05-10T20:36:09.720Z,11.95
2018-05-10T20:39:13.108Z,11.92
2018-05-10T20:42:16.631Z,11.90
2018-05-10T20:45:20.381Z,11.89
2018-05-10T20:48:24.282Z,11.86
2018-05-10T20:51:28.841Z,11.81
2018-05-10T20:54:33.018Z,11.78
2018-05-10T20:57:36.518Z,11.74
2018-05-10T21:00:40.192Z,11.72
2018-05-10T21:03:43.599Z,11.70
2018-05-10T21:06:47.699Z,11.67
2018-05-10T21:09:51.092Z,11.67
2018-05-10T21:12:54.489Z,11.70
2018-05-10T21:15:57.862Z,11.75
2018-05-10T21:19:01.303Z,11.81
2018-05-10T21:22:06.174Z,11.81
2018-05-10T21:25:09.580Z,11.81
2018-05-10T21:28:12.928Z,11.77
2018-05-10T21:31:16.265Z,11.75
2018-05-10T21:34:19.621Z,11.70
2018-05-10T21:37:22.948Z,11.68
2018-05-10T21:40:26.483Z,11.69
2018-05-10T21:43:29.814Z,11.71
2018-05-10T21:46:33.223Z,11.78
2018-05-10T21:49:55.176Z,11.89
2018-05-10T21:52:58.537Z,11.90
2018-05-10T21:56:02.628Z,11.96
2018-05-10T21:59:05.960Z,11.94
2018-05-10T22:02:09.284Z,11.99
2018-05-10T22:05:12.731Z,11.96
2018-05-10T22:08:16.135Z,12.00
2018-05-10T22:11:20.241Z,11.99
2018-05-10T22:14:23.564Z,12.01
2018-05-10T22:17:26.945Z,12.01
2018-05-10T22:20:30.256Z,12.04
2018-05-10T22:23:33.629Z,12.04
2018-05-10T22:26:37.029Z,12.00
2018-05-10T22:29:40.384Z,11.97
2018-05-10T22:32:43.764Z,11.89
2018-05-10T22:35:47.857Z,11.92
2018-05-10T22:38:51.170Z,11.91
2018-05-10T22:41:54.552Z,11.90
2018-05-10T22:44:57.944Z,11.89
2018-05-10T22:48:01.428Z,11.86
2018-05-10T22:51:06.478Z,11.89
2018-05-10T22:54:09.822Z,11.84
2018-05-10T22:57:13.989Z,11.83
2018-05-10T23:00:17.338Z,11.84
2018-05-10T23:03:21.512Z,11.85
2018-05-10T23:06:24.861Z,11.80
2018-05-10T23:09:28.938Z,11.84
2018-05-10T23:12:32.287Z,11.89
2018-05-10T23:15:35.597Z,11.92
2018-05-10T23:18:38.944Z,11.97
2018-05-10T23:21:42.268Z,11.91
2018-05-10T23:24:46.364Z,11.88
2018-05-10T23:27:49.726Z,11.88
2018-05-10T23:30:53.063Z,11.87
2018-05-10T23:33:57.145Z,11.88
2018-05-10T23:37:00.554Z,11.90
2018-05-10T23:40:03.942Z,11.91
2018-05-10T23:43:07.298Z,11.91
2018-05-10T23:46:10.615Z,11.91
2018-05-10T23:49:14.033Z,11.85
2018-05-10T23:52:17.439Z,11.82
2018-05-10T23:55:20.770Z,11.78
2018-05-10T23:58:24.953Z,11.81
